Time;durP1;ratioP1;P1;durP2;ratioP2;P2;SDS_P1;SDS_P2;PMS_P1;PMS_P2;Temp;Humidity;BMP_temperature;BMP_pressure;BME280_temperature;BME280_humidity;BME280_pressure;Samples;Min_cycle;Max_cycle;Signal;HPM_P1;HPM_P2
2024/01/16 00:02:00;;;;;;;7.45;1.80;;;0.60;99.90;;;;;;5052009;28;20095;-69
2024/01/16 00:04:26;;;;;;;6.47;1.50;;;0.70;99.90;;;;;;5052846;28;20387;-68
2024/01/16 00:06:52;;;;;;;6.05;2.05;;;0.60;99.90;;;;;;5031700;28;20048;-68
2024/01/16 00:09:18;;;;;;;6.53;1.70;;;0.90;99.90;;;;;;5075890;28;20036;-68
2024/01/16 00:11:43;;;;;;;9.77;2.17;;;0.60;99.90;;;;;;5051622;28;20041;-77
2024/01/16 00:14:09;;;;;;;10.18;2.05;;;0.50;99.90;;;;;;5052058;28;20044;-68
2024/01/16 00:16:46;;;;;;;8.90;1.83;;;0.50;99.90;;;;;;5052772;28;20090;-69
2024/01/16 00:19:14;;;;;;;7.72;1.92;;;1.10;99.90;;;;;;5071007;28;20072;-69
2024/01/16 00:21:41;;;;;;;8.98;2.30;;;0.50;99.90;;;;;;5053556;28;20055;-68
2024/01/16 00:24:07;;;;;;;8.30;1.70;;;1.40;99.90;;;;;;5051163;28;20477;-69
2024/01/16 00:26:33;;;;;;;5.70;1.50;;;0.40;99.90;;;;;;5063607;28;20040;-68
2024/01/16 00:28:58;;;;;;;5.50;1.50;;;0.40;99.90;;;;;;5050218;28;20074;-68
2024/01/16 00:31:24;;;;;;;8.40;1.80;;;0.40;99.90;;;;;;5050549;28;20049;-68
2024/01/16 00:33:50;;;;;;;9.07;1.67;;;0.40;99.90;;;;;;5051365;28;20045;-68
2024/01/16 00:36:15;;;;;;;5.80;1.77;;;0.40;99.90;;;;;;5051848;28;20127;-68
2024/01/16 00:38:41;;;;;;;3.50;1.40;;;0.40;99.90;;;;;;5050191;28;20045;-68
2024/01/16 00:41:07;;;;;;;5.32;1.40;;;1.10;99.90;;;;;;5040402;28;20056;-69
2024/01/16 00:43:35;;;;;;;6.25;1.60;;;0.40;99.90;;;;;;5049163;28;20029;-68
2024/01/16 00:46:01;;;;;;;6.75;1.50;;;0.30;99.90;;;;;;5050493;28;20120;-68
2024/01/16 00:48:26;;;;;;;4.90;1.50;;;0.30;99.90;;;;;;5051098;28;20124;-68
2024/01/16 00:50:52;;;;;;;8.63;1.63;;;0.30;99.90;;;;;;5051241;28;20120;-68
2024/01/16 00:53:18;;;;;;;10.15;2.55;;;0.30;99.90;;;;;;5050838;28;20132;-68
2024/01/16 00:55:44;;;;;;;5.55;1.70;;;0.30;99.90;;;;;;5051811;28;20382;-68
2024/01/16 00:58:10;;;;;;;5.20;1.60;;;0.50;99.90;;;;;;5078394;28;20344;-68
2024/01/16 01:00:37;;;;;;;7.38;1.45;;;0.40;99.90;;;;;;5050984;28;20120;-68
2024/01/16 01:03:03;;;;;;;6.43;2.08;;;0.40;99.90;;;;;;5033260;28;20047;-68
2024/01/16 01:05:29;;;;;;;2.67;1.45;;;0.40;99.90;;;;;;5033708;28;20059;-67
2024/01/16 01:07:56;;;;;;;7.03;1.42;;;0.40;99.90;;;;;;5059351;28;20123;-68
2024/01/16 01:10:21;;;;;;;6.70;1.70;;;1.20;99.90;;;;;;5067219;28;20044;-71
2024/01/16 01:12:47;;;;;;;5.43;1.50;;;0.40;99.90;;;;;;5050302;28;20052;-68
2024/01/16 01:15:15;;;;;;;7.15;1.60;;;0.30;99.90;;;;;;5049795;28;20627;-68
2024/01/16 01:17:41;;;;;;;6.88;2.05;;;0.30;99.90;;;;;;5038395;28;20045;-68
2024/01/16 01:20:08;;;;;;;9.48;2.00;;;0.20;99.90;;;;;;5043941;28;20106;-71
2024/01/16 01:22:34;;;;;;;6.05;1.55;;;0.20;99.90;;;;;;5044263;28;20055;-68
2024/01/16 01:25:00;;;;;;;13.05;2.42;;;0.20;99.90;;;;;;5055240;28;20116;-69
2024/01/16 01:27:25;;;;;;;5.63;1.83;;;0.20;99.90;;;;;;5058121;28;20076;-68
2024/01/16 01:29:51;;;;;;;6.68;1.42;;;0.80;99.90;;;;;;5058341;28;20489;-69
2024/01/16 01:32:17;;;;;;;9.25;1.75;;;0.20;99.90;;;;;;5057288;28;20128;-69
2024/01/16 01:34:43;;;;;;;9.90;2.10;;;0.20;99.90;;;;;;5057940;28;20114;-69
2024/01/16 01:37:08;;;;;;;9.85;2.20;;;0.10;99.90;;;;;;5056021;28;20048;-69
2024/01/16 01:39:34;;;;;;;10.18;2.28;;;0.10;99.90;;;;;;5058717;28;20033;-69
2024/01/16 01:42:00;;;;;;;9.27;2.13;;;0.10;99.90;;;;;;5055532;28;20045;-69
2024/01/16 01:44:25;;;;;;;12.85;2.15;;;0.10;99.90;;;;;;5056583;28;20462;-69
2024/01/16 01:46:54;;;;;;;11.05;2.22;;;0.20;99.90;;;;;;5057676;28;20394;-69
2024/01/16 01:49:20;;;;;;;13.35;2.70;;;0.20;99.90;;;;;;5057340;28;20102;-69
2024/01/16 01:51:46;;;;;;;7.47;2.13;;;0.90;99.90;;;;;;5057338;28;20462;-68
2024/01/16 01:54:13;;;;;;;6.25;1.73;;;0.20;99.90;;;;;;5057213;28;20128;-68
2024/01/16 01:56:42;;;;;;;10.80;2.00;;;0.20;99.90;;;;;;5057078;28;20102;-68
2024/01/16 01:59:08;;;;;;;11.52;1.95;;;0.20;99.90;;;;;;5057101;28;20073;-72
2024/01/16 02:01:34;;;;;;;9.38;1.85;;;0.10;99.90;;;;;;5058048;28;20454;-69
2024/01/16 02:04:01;;;;;;;4.03;1.63;;;0.10;99.90;;;;;;5056342;28;20421;-76
2024/01/16 02:06:28;;;;;;;10.35;1.85;;;0.00;99.90;;;;;;5089959;28;20036;-69
2024/01/16 02:08:54;;;;;;;9.20;1.83;;;0.00;99.90;;;;;;5057998;28;20102;-68
2024/01/16 02:11:19;;;;;;;8.82;1.77;;;0.70;99.90;;;;;;5048115;28;20037;-68
2024/01/16 02:13:46;;;;;;;8.50;1.50;;;0.10;99.90;;;;;;5089754;28;20063;-69
2024/01/16 02:16:21;;;;;;;8.25;1.90;;;0.10;99.90;;;;;;5056907;28;20040;-69
2024/01/16 02:18:48;;;;;;;6.05;1.50;;;0.00;99.90;;;;;;5057324;28;20040;-68
2024/01/16 02:21:19;;;;;;;8.07;1.75;;;0.00;99.90;;;;;;5045707;28;20049;-68
2024/01/16 02:23:45;;;;;;;5.75;1.90;;;0.00;99.90;;;;;;5050107;28;20049;-69
2024/01/16 02:26:11;;;;;;;10.07;1.63;;;0.10;99.90;;;;;;5037688;28;20375;-69
2024/01/16 02:28:36;;;;;;;5.70;1.55;;;0.10;99.90;;;;;;5056123;28;20040;-73
2024/01/16 02:31:02;;;;;;;12.35;2.00;;;0.10;99.90;;;;;;5055372;28;20061;-68
2024/01/16 02:33:28;;;;;;;6.28;2.10;;;0.10;99.90;;;;;;5057719;28;20061;-69
2024/01/16 02:35:54;;;;;;;7.38;1.90;;;0.20;99.90;;;;;;5034189;28;20049;-69
2024/01/16 02:38:20;;;;;;;8.65;1.85;;;0.20;99.90;;;;;;5037433;28;20033;-69
2024/01/16 02:40:45;;;;;;;7.97;1.80;;;0.20;99.90;;;;;;5045426;28;20468;-69
2024/01/16 02:43:11;;;;;;;8.45;2.22;;;0.20;99.90;;;;;;5039280;28;20066;-69
2024/01/16 02:45:37;;;;;;;9.35;2.15;;;0.20;99.90;;;;;;5054237;28;20036;-69
2024/01/16 02:48:03;;;;;;;7.55;1.95;;;0.20;99.90;;;;;;5052982;28;20055;-69
2024/01/16 02:50:29;;;;;;;10.35;2.00;;;0.20;99.90;;;;;;5066638;28;20052;-69
2024/01/16 02:52:54;;;;;;;8.63;2.20;;;0.40;99.90;;;;;;5053309;28;20041;-69
2024/01/16 02:55:20;;;;;;;11.23;2.35;;;0.20;99.90;;;;;;5053272;28;20462;-69
2024/01/16 02:57:46;;;;;;;8.68;2.30;;;0.60;99.90;;;;;;5053722;28;20121;-69
2024/01/16 03:00:12;;;;;;;7.55;1.90;;;0.20;99.90;;;;;;5053767;28;20091;-78
2024/01/16 03:02:37;;;;;;;10.65;2.03;;;0.20;99.90;;;;;;5035979;28;20124;-69
2024/01/16 03:05:05;;;;;;;9.63;1.98;;;0.30;99.90;;;;;;5053353;28;20120;-68
2024/01/16 03:07:30;;;;;;;6.28;2.15;;;0.20;99.90;;;;;;5051958;28;20498;-69
2024/01/16 03:09:56;;;;;;;9.40;2.15;;;0.80;99.90;;;;;;5054205;28;20039;-68
2024/01/16 03:12:22;;;;;;;10.15;2.08;;;0.20;99.90;;;;;;5053068;28;20124;-69
2024/01/16 03:14:47;;;;;;;7.75;1.83;;;0.20;99.90;;;;;;5053566;28;20048;-68
2024/01/16 03:17:13;;;;;;;9.75;1.98;;;0.10;99.90;;;;;;5051785;28;20040;-77
2024/01/16 03:19:39;;;;;;;7.05;1.63;;;0.00;99.90;;;;;;5050528;28;20037;-69
2024/01/16 03:22:04;;;;;;;6.53;2.03;;;-0.50;99.90;;;;;;5051044;28;20094;-68
2024/01/16 03:24:31;;;;;;;5.95;2.15;;;0.00;99.90;;;;;;5051356;28;20059;-68
2024/01/16 03:26:56;;;;;;;14.80;2.53;;;0.80;99.90;;;;;;5051533;28;20051;-68
2024/01/16 03:29:22;;;;;;;7.60;2.10;;;-0.10;99.90;;;;;;5035368;28;20091;-69
2024/01/16 03:31:48;;;;;;;9.13;2.40;;;0.10;99.90;;;;;;5055408;28;20502;-68
2024/01/16 03:34:13;;;;;;;7.95;2.05;;;-0.10;99.90;;;;;;5052847;28;20045;-68
2024/01/16 03:36:39;;;;;;;8.23;2.28;;;0.10;99.90;;;;;;5046967;28;20049;-68
2024/01/16 03:39:05;;;;;;;8.25;2.33;;;-0.10;99.90;;;;;;5050960;28;20043;-68
2024/01/16 03:41:31;;;;;;;11.27;2.15;;;0.00;99.90;;;;;;5040310;28;20483;-69
2024/01/16 03:43:57;;;;;;;10.30;2.85;;;-0.10;99.90;;;;;;5052066;28;20053;-71
2024/01/16 03:46:23;;;;;;;10.63;2.35;;;-0.10;99.90;;;;;;5037755;28;20040;-69
2024/01/16 03:48:48;;;;;;;8.68;2.28;;;-0.10;99.90;;;;;;5050397;28;20049;-68
2024/01/16 03:51:19;;;;;;;9.52;2.50;;;-0.10;99.90;;;;;;5051657;28;20037;-68
2024/01/16 03:53:45;;;;;;;11.43;3.08;;;-0.10;99.90;;;;;;5053581;28;20056;-69
2024/01/16 03:56:11;;;;;;;11.70;2.60;;;0.80;99.90;;;;;;5055041;28;20033;-69
2024/01/16 03:58:37;;;;;;;10.13;2.15;;;0.00;99.90;;;;;;5052304;28;20385;-68
2024/01/16 04:01:03;;;;;;;11.73;2.60;;;0.50;99.90;;;;;;5052511;28;20052;-69
2024/01/16 04:03:29;;;;;;;10.63;2.42;;;0.00;99.90;;;;;;5052768;28;20037;-69
2024/01/16 04:05:55;;;;;;;12.85;2.50;;;0.10;99.90;;;;;;5051158;28;20473;-69
2024/01/16 04:08:20;;;;;;;7.82;2.10;;;0.10;99.90;;;;;;5051934;28;20048;-77
2024/01/16 04:10:46;;;;;;;11.45;2.30;;;0.40;99.90;;;;;;5067504;28;20386;-69
2024/01/16 04:13:12;;;;;;;11.30;2.60;;;0.20;99.90;;;;;;5053323;28;20049;-69
2024/01/16 04:15:38;;;;;;;12.00;2.20;;;0.20;99.90;;;;;;5050920;28;20075;-69
2024/01/16 04:18:04;;;;;;;11.30;3.10;;;0.20;99.90;;;;;;5051306;28;20048;-69
2024/01/16 04:20:30;;;;;;;9.40;2.28;;;0.20;99.90;;;;;;5050420;28;20158;-69
2024/01/16 04:22:57;;;;;;;10.13;2.20;;;-0.20;99.90;;;;;;5050651;28;20428;-69
2024/01/16 04:25:23;;;;;;;13.95;2.95;;;0.40;99.90;;;;;;5051802;28;20505;-76
2024/01/16 04:27:49;;;;;;;7.00;2.33;;;0.30;99.90;;;;;;5052030;28;20048;-69
2024/01/16 04:30:14;;;;;;;8.32;1.80;;;0.30;99.90;;;;;;5052205;28;20470;-68
2024/01/16 04:32:40;;;;;;;11.05;2.45;;;0.30;99.90;;;;;;5049557;28;20049;-68
2024/01/16 04:35:06;;;;;;;10.38;2.33;;;1.10;99.90;;;;;;5053707;28;20492;-69
2024/01/16 04:37:32;;;;;;;9.15;2.58;;;0.30;99.90;;;;;;5037725;28;20029;-68
2024/01/16 04:39:59;;;;;;;10.70;2.35;;;0.30;99.90;;;;;;5084909;28;20044;-68
2024/01/16 04:42:25;;;;;;;8.93;2.47;;;0.40;99.90;;;;;;5050796;28;20037;-68
2024/01/16 04:44:51;;;;;;;7.25;2.22;;;0.90;99.90;;;;;;5052272;28;20094;-69
2024/01/16 04:47:16;;;;;;;10.57;2.70;;;0.40;99.90;;;;;;5050191;28;20481;-68
2024/01/16 04:49:43;;;;;;;18.00;2.47;;;0.40;99.90;;;;;;5049813;28;20036;-68
2024/01/16 04:52:08;;;;;;;12.95;2.55;;;1.00;99.90;;;;;;5051688;28;20086;-68
2024/01/16 04:54:34;;;;;;;14.00;2.40;;;0.40;99.90;;;;;;5051334;28;20163;-68
2024/01/16 04:57:00;;;;;;;8.48;2.30;;;0.40;99.90;;;;;;5054387;28;20052;-68
2024/01/16 04:59:25;;;;;;;12.23;2.70;;;0.40;99.90;;;;;;5066272;28;20063;-68
2024/01/16 05:01:51;;;;;;;11.13;2.33;;;0.40;99.90;;;;;;5050839;28;20048;-68
2024/01/16 05:04:17;;;;;;;8.70;2.08;;;0.40;99.90;;;;;;5051439;28;20045;-68
2024/01/16 05:06:43;;;;;;;12.82;2.40;;;0.80;99.90;;;;;;5074831;28;20062;-68
2024/01/16 05:09:12;;;;;;;10.50;2.83;;;0.40;99.90;;;;;;5057071;28;20041;-69
2024/01/16 05:11:37;;;;;;;12.57;2.45;;;0.40;99.90;;;;;;5050873;28;20080;-68
2024/01/16 05:14:03;;;;;;;13.20;3.00;;;0.40;99.90;;;;;;5051638;28;20076;-68
2024/01/16 05:16:29;;;;;;;10.77;2.70;;;1.10;99.90;;;;;;5068574;28;20124;-68
2024/01/16 05:18:54;;;;;;;14.77;2.45;;;0.30;99.90;;;;;;5060063;28;20453;-68
2024/01/16 05:21:20;;;;;;;12.25;2.90;;;1.00;99.90;;;;;;5050243;28;20064;-68
2024/01/16 05:23:46;;;;;;;8.55;2.55;;;0.30;99.90;;;;;;5050442;28;20179;-68
2024/01/16 05:26:12;;;;;;;13.85;2.80;;;0.30;99.90;;;;;;5050025;28;20470;-68
2024/01/16 05:28:41;;;;;;;16.83;2.33;;;0.30;99.90;;;;;;5063806;28;20040;-69
2024/01/16 05:31:07;;;;;;;10.57;2.05;;;0.30;99.90;;;;;;5050536;28;20044;-69
2024/01/16 05:33:33;;;;;;;11.93;2.33;;;0.30;99.90;;;;;;5049694;28;20106;-69
2024/01/16 05:35:58;;;;;;;12.23;2.75;;;1.10;99.90;;;;;;5044295;28;20049;-69
2024/01/16 05:38:24;;;;;;;11.35;2.67;;;0.30;99.90;;;;;;5045005;28;20048;-68
2024/01/16 05:40:50;;;;;;;15.15;2.63;;;0.30;99.90;;;;;;5051504;28;20041;-68
2024/01/16 05:43:15;;;;;;;12.15;2.08;;;0.40;99.90;;;;;;5050893;28;20033;-68
2024/01/16 05:45:41;;;;;;;12.15;2.60;;;0.40;99.90;;;;;;5049188;28;20048;-69
2024/01/16 05:48:08;;;;;;;15.30;3.05;;;0.30;99.90;;;;;;5048311;28;20450;-68
2024/01/16 05:50:37;;;;;;;19.88;3.15;;;0.40;99.90;;;;;;5032931;28;20391;-69
2024/01/16 05:53:03;;;;;;;12.95;2.78;;;0.50;99.90;;;;;;5038681;28;20076;-68
2024/01/16 05:55:31;;;;;;;9.80;2.20;;;1.10;99.90;;;;;;5029262;28;20041;-68
2024/01/16 05:57:59;;;;;;;7.88;2.38;;;0.40;99.90;;;;;;5034813;28;20036;-68
2024/01/16 06:00:25;;;;;;;10.00;2.42;;;0.30;99.90;;;;;;5048678;28;20045;-68
2024/01/16 06:02:50;;;;;;;12.88;2.30;;;0.50;99.90;;;;;;5039932;28;20088;-69
2024/01/16 06:05:16;;;;;;;9.32;2.30;;;0.30;99.90;;;;;;5036298;28;20488;-69
2024/01/16 06:07:42;;;;;;;14.35;2.65;;;0.30;99.90;;;;;;5027932;28;20168;-75
2024/01/16 06:10:09;;;;;;;13.95;2.63;;;0.40;99.90;;;;;;5040986;28;20077;-69
2024/01/16 06:12:35;;;;;;;9.73;2.50;;;0.30;99.90;;;;;;5038070;28;20052;-69
2024/01/16 06:15:00;;;;;;;10.73;2.78;;;0.30;99.90;;;;;;5074337;28;20123;-69
2024/01/16 06:17:26;;;;;;;11.13;2.65;;;0.40;99.90;;;;;;5054626;28;20037;-69
2024/01/16 06:19:52;;;;;;;10.68;2.80;;;0.40;99.90;;;;;;5052921;28;20504;-69
2024/01/16 06:22:17;;;;;;;27.77;3.15;;;0.40;99.90;;;;;;5036683;28;20386;-69
2024/01/16 06:24:43;;;;;;;17.88;2.90;;;0.60;99.90;;;;;;5071566;28;20102;-78
2024/01/16 06:27:09;;;;;;;14.02;2.88;;;0.80;99.90;;;;;;5042331;28;20029;-69
2024/01/16 06:29:34;;;;;;;10.38;2.63;;;0.40;99.90;;;;;;5066788;28;20467;-69
2024/01/16 06:32:00;;;;;;;8.88;2.50;;;0.30;99.90;;;;;;5033778;28;20053;-69
2024/01/16 06:34:27;;;;;;;14.02;2.97;;;0.90;99.90;;;;;;5048285;28;20379;-69
2024/01/16 06:36:52;;;;;;;12.45;2.90;;;0.40;99.90;;;;;;5085469;28;20106;-69
2024/01/16 06:39:18;;;;;;;14.40;2.72;;;0.30;99.90;;;;;;5053335;28;20120;-69
2024/01/16 06:41:44;;;;;;;15.90;2.38;;;1.00;99.90;;;;;;5053798;28;20071;-69
2024/01/16 06:44:09;;;;;;;10.27;2.35;;;0.40;99.90;;;;;;5063542;28;20044;-69
2024/01/16 06:46:35;;;;;;;12.95;2.80;;;0.30;99.90;;;;;;5046359;28;20089;-69
2024/01/16 06:49:01;;;;;;;8.65;2.38;;;0.30;99.90;;;;;;5045700;28;20377;-69
2024/01/16 06:51:27;;;;;;;12.18;2.70;;;0.30;99.90;;;;;;5040903;28;20152;-69
2024/01/16 06:53:53;;;;;;;15.95;2.90;;;1.00;99.90;;;;;;5071155;28;20055;-69
2024/01/16 06:56:19;;;;;;;11.93;2.55;;;0.20;99.90;;;;;;5063798;28;20056;-69
2024/01/16 06:58:44;;;;;;;7.75;2.10;;;0.30;99.90;;;;;;5033929;28;20060;-69
2024/01/16 07:01:10;;;;;;;9.18;2.28;;;0.30;99.90;;;;;;5040678;28;20043;-69
2024/01/16 07:03:36;;;;;;;13.10;2.35;;;0.20;99.90;;;;;;5039628;28;20061;-69
2024/01/16 07:06:02;;;;;;;14.93;2.65;;;0.30;99.90;;;;;;5038618;28;20130;-70
2024/01/16 07:08:28;;;;;;;9.85;2.63;;;0.20;99.90;;;;;;5033614;28;20041;-69
2024/01/16 07:10:53;;;;;;;7.28;2.08;;;0.20;99.90;;;;;;5036224;28;20482;-70
2024/01/16 07:13:19;;;;;;;9.75;2.40;;;0.70;99.90;;;;;;5050749;28;20037;-69
2024/01/16 07:15:45;;;;;;;13.23;2.67;;;0.20;99.90;;;;;;5054992;28;20045;-69
2024/01/16 07:18:11;;;;;;;10.73;2.72;;;0.20;99.90;;;;;;5060974;28;20044;-70
2024/01/16 07:20:36;;;;;;;14.02;3.00;;;0.20;99.90;;;;;;5051721;28;20052;-69
2024/01/16 07:23:02;;;;;;;12.02;3.00;;;0.90;99.90;;;;;;5046170;28;20086;-73
2024/01/16 07:25:28;;;;;;;12.27;2.33;;;0.20;99.90;;;;;;5037264;28;20073;-69
2024/01/16 07:27:54;;;;;;;16.10;2.85;;;0.20;99.90;;;;;;5043488;28;20382;-77
2024/01/16 07:30:19;;;;;;;8.38;2.70;;;0.10;99.90;;;;;;5040301;28;20082;-69
2024/01/16 07:32:45;;;;;;;8.48;2.40;;;0.20;99.90;;;;;;5035718;28;20053;-69
2024/01/16 07:35:11;;;;;;;8.25;2.63;;;0.10;99.90;;;;;;5045120;28;20041;-70
2024/01/16 07:37:36;;;;;;;10.82;2.75;;;0.10;99.90;;;;;;5084453;28;20360;-69
2024/01/16 07:40:05;;;;;;;12.63;3.28;;;0.10;99.90;;;;;;5052555;28;20081;-70
2024/01/16 07:42:34;;;;;;;11.95;3.13;;;0.10;99.90;;;;;;5049826;28;20064;-77
2024/01/16 07:45:04;;;;;;;12.95;2.50;;;0.10;99.90;;;;;;5047524;28;20049;-68
2024/01/16 07:47:31;;;;;;;13.30;2.45;;;0.10;99.90;;;;;;5052799;28;20055;-67
2024/01/16 07:49:57;;;;;;;8.25;2.78;;;0.20;99.90;;;;;;5051680;28;20090;-75
2024/01/16 07:52:23;;;;;;;11.82;2.70;;;0.20;99.90;;;;;;5046312;28;20680;-68
2024/01/16 07:54:48;;;;;;;9.20;2.50;;;0.70;99.90;;;;;;5041960;28;20037;-68
2024/01/16 07:57:14;;;;;;;11.30;2.88;;;0.20;99.90;;;;;;5041151;28;20489;-68
2024/01/16 07:59:41;;;;;;;10.77;2.85;;;0.20;99.90;;;;;;5042357;28;20140;-68
2024/01/16 08:02:06;;;;;;;15.05;3.30;;;0.30;99.90;;;;;;5070677;28;20122;-69
2024/01/16 08:04:32;;;;;;;7.90;2.72;;;0.30;99.90;;;;;;5061006;28;20473;-75
2024/01/16 08:06:58;;;;;;;10.70;2.70;;;0.30;99.90;;;;;;5043634;28;20138;-69
2024/01/16 08:09:24;;;;;;;14.15;3.42;;;0.40;99.90;;;;;;5048656;28;20162;-71
2024/01/16 08:11:49;;;;;;;11.13;2.90;;;0.40;99.90;;;;;;5051787;28;20049;-71
2024/01/16 08:14:15;;;;;;;12.80;2.47;;;0.40;99.90;;;;;;5040374;28;20041;-69
2024/01/16 08:16:41;;;;;;;10.20;2.50;;;0.40;99.90;;;;;;5032663;28;20073;-69
2024/01/16 08:19:07;;;;;;;11.35;2.40;;;0.60;99.90;;;;;;5041470;28;20044;-69
2024/01/16 08:21:33;;;;;;;9.45;2.60;;;0.60;99.90;;;;;;5049015;28;20095;-69
2024/01/16 08:23:59;;;;;;;8.98;2.40;;;0.60;99.90;;;;;;5057842;28;20045;-71
2024/01/16 08:26:25;;;;;;;11.13;2.30;;;0.60;99.90;;;;;;5042932;28;20068;-71
2024/01/16 08:28:51;;;;;;;11.55;2.42;;;0.60;99.90;;;;;;5059526;28;20048;-69
2024/01/16 08:31:21;;;;;;;9.30;1.98;;;0.60;99.90;;;;;;5041829;28;20048;-70
2024/01/16 08:33:47;;;;;;;7.50;2.40;;;0.60;99.90;;;;;;5052985;28;20418;-69
2024/01/16 08:36:15;;;;;;;7.60;2.13;;;0.60;99.90;;;;;;5037079;28;20041;-69
2024/01/16 08:38:40;;;;;;;9.73;3.00;;;0.70;99.90;;;;;;5050591;28;20056;-69
2024/01/16 08:41:06;;;;;;;12.63;2.30;;;0.70;99.90;;;;;;5050024;28;20421;-77
2024/01/16 08:43:33;;;;;;;5.85;2.40;;;0.70;99.90;;;;;;5015795;28;20489;-70
2024/01/16 08:45:59;;;;;;;7.57;2.40;;;0.70;99.90;;;;;;5049979;28;20053;-70
2024/01/16 08:48:25;;;;;;;10.75;2.53;;;0.70;99.90;;;;;;5047401;28;20148;-73
2024/01/16 08:50:51;;;;;;;6.78;2.60;;;0.80;99.90;;;;;;5066294;28;20037;-70
2024/01/16 08:53:17;;;;;;;8.30;2.45;;;1.10;99.90;;;;;;5035399;28;20049;-70
2024/01/16 08:55:43;;;;;;;10.73;3.22;;;0.80;99.90;;;;;;5065585;28;20127;-70
2024/01/16 08:58:08;;;;;;;7.63;2.50;;;0.90;99.90;;;;;;5032511;28;20052;-71
2024/01/16 09:00:34;;;;;;;6.68;2.25;;;0.90;99.90;;;;;;5047339;28;20041;-71
2024/01/16 09:03:00;;;;;;;8.25;2.38;;;1.00;99.90;;;;;;5042382;28;20442;-70
2024/01/16 09:05:26;;;;;;;13.50;2.85;;;1.00;99.90;;;;;;5049343;28;20045;-70
2024/01/16 09:07:54;;;;;;;10.43;2.30;;;1.10;99.90;;;;;;5050821;28;20048;-79
2024/01/16 09:10:20;;;;;;;12.63;2.67;;;1.10;99.90;;;;;;5066758;28;20046;-76
2024/01/16 09:12:46;;;;;;;6.25;2.30;;;1.30;99.90;;;;;;5040625;28;20045;-73
2024/01/16 09:15:12;;;;;;;4.47;1.67;;;1.20;99.90;;;;;;5036136;28;20033;-80
2024/01/16 09:17:38;;;;;;;7.07;2.20;;;1.30;99.90;;;;;;5039386;28;20119;-75
2024/01/16 09:20:06;;;;;;;6.65;1.83;;;1.30;99.90;;;;;;5053040;28;20507;-74
2024/01/16 09:22:32;;;;;;;5.72;1.70;;;1.30;99.90;;;;;;5050661;28;20529;-78
2024/01/16 09:24:58;;;;;;;6.60;1.60;;;1.30;99.90;;;;;;5030172;28;20034;-76
2024/01/16 09:27:24;;;;;;;8.00;2.60;;;1.30;99.90;;;;;;5076700;28;20597;-75
2024/01/16 09:29:49;;;;;;;7.53;1.75;;;1.40;99.90;;;;;;5049660;28;20132;-77
2024/01/16 09:32:15;;;;;;;12.98;2.08;;;1.40;99.90;;;;;;5051115;28;20347;-82
2024/01/16 09:34:41;;;;;;;9.43;2.20;;;1.30;99.90;;;;;;5075000;28;20095;-78
2024/01/16 09:37:08;;;;;;;7.07;1.85;;;1.30;99.90;;;;;;5068893;28;20045;-77
2024/01/16 09:39:35;;;;;;;6.22;2.08;;;1.30;99.90;;;;;;5044370;28;20610;-78
2024/01/16 09:42:01;;;;;;;9.27;2.40;;;1.30;99.90;;;;;;5073612;28;20052;-78
2024/01/16 09:44:28;;;;;;;6.70;2.20;;;1.30;99.90;;;;;;5045220;28;20124;-77
2024/01/16 09:46:56;;;;;;;10.25;2.47;;;1.30;99.90;;;;;;5063423;28;20413;-77
2024/01/16 09:49:23;;;;;;;7.40;2.10;;;1.30;99.90;;;;;;5037151;28;20422;-78
2024/01/16 09:51:49;;;;;;;10.02;1.98;;;1.40;99.90;;;;;;5068090;28;20045;-78
2024/01/16 09:54:14;;;;;;;13.38;1.95;;;2.10;99.90;;;;;;5053104;28;20048;-78
2024/01/16 09:56:43;;;;;;;7.93;2.28;;;1.40;99.90;;;;;;5063344;28;20072;-78
2024/01/16 09:59:10;;;;;;;7.35;2.10;;;1.30;99.90;;;;;;5024112;28;21350;-78
2024/01/16 10:01:36;;;;;;;7.18;2.10;;;2.00;99.90;;;;;;5051389;28;20037;-79
2024/01/16 10:04:02;;;;;;;8.82;2.03;;;1.80;99.90;;;;;;5054180;28;20414;-79
2024/01/16 10:06:31;;;;;;;7.20;1.90;;;1.50;99.90;;;;;;5055676;28;20172;-79
2024/01/16 10:08:57;;;;;;;9.15;2.00;;;2.00;99.90;;;;;;5053419;28;20045;-78
2024/01/16 10:11:23;;;;;;;7.97;2.00;;;1.50;99.90;;;;;;5053416;28;20041;-80
2024/01/16 10:13:49;;;;;;;7.80;1.60;;;1.60;99.90;;;;;;5026534;28;20147;-80
2024/01/16 10:16:15;;;;;;;3.55;1.60;;;2.20;99.90;;;;;;5029179;28;20048;-80
2024/01/16 10:18:40;;;;;;;9.38;1.90;;;1.60;99.90;;;;;;5068412;28;20675;-81
2024/01/16 10:21:21;;;;;;;7.30;1.80;;;2.00;99.90;;;;;;5053128;28;20080;-81
2024/01/16 10:23:47;;;;;;;5.57;1.90;;;1.60;99.90;;;;;;5033800;28;20038;-74
2024/01/16 10:26:14;;;;;;;4.97;2.08;;;1.70;99.90;;;;;;5059823;28;20049;-74
2024/01/16 10:28:41;;;;;;;8.65;2.08;;;1.60;99.90;;;;;;5042150;28;20056;-74
2024/01/16 10:31:08;;;;;;;6.75;1.88;;;1.70;99.90;;;;;;5053061;28;20486;-74
2024/01/16 10:33:34;;;;;;;5.03;1.80;;;1.60;99.90;;;;;;5032838;28;20088;-75
2024/01/16 10:36:14;;;;;;;7.57;2.03;;;1.70;99.90;;;;;;5022222;28;20073;-75
2024/01/16 10:38:41;;;;;;;6.13;1.60;;;1.70;99.90;;;;;;5072843;28;20033;-76
2024/01/16 10:41:14;;;;;;;3.33;1.60;;;1.70;99.90;;;;;;5053320;28;20048;-76
2024/01/16 10:43:41;;;;;;;4.85;1.77;;;1.70;99.90;;;;;;5052308;28;20132;-77
2024/01/16 10:46:15;;;;;;;7.95;2.08;;;1.70;99.90;;;;;;5086585;28;20494;-76
2024/01/16 10:48:58;;;;;;;4.38;1.75;;;1.60;99.90;;;;;;5100109;28;20060;-78
2024/01/16 10:51:25;;;;;;;6.82;1.80;;;2.10;99.90;;;;;;5036236;28;20072;-76
2024/01/16 10:53:58;;;;;;;8.75;1.95;;;1.80;99.90;;;;;;5049750;28;20057;-77
2024/01/16 10:56:25;;;;;;;3.90;1.63;;;1.70;99.90;;;;;;5036434;28;20036;-77
2024/01/16 10:59:18;;;;;;;4.53;1.70;;;1.80;99.90;;;;;;5059894;28;20079;-77
2024/01/16 11:01:48;;;;;;;5.13;1.92;;;1.80;99.90;;;;;;5040503;28;20065;-78
2024/01/16 11:04:15;;;;;;;6.90;2.08;;;2.00;99.90;;;;;;5043278;28;20102;-77
2024/01/16 11:06:42;;;;;;;7.63;2.35;;;1.80;99.90;;;;;;5069069;28;20202;-76
2024/01/16 11:09:09;;;;;;;5.95;2.08;;;1.80;99.90;;;;;;5030527;28;20148;-76
2024/01/16 11:11:37;;;;;;;5.75;2.03;;;1.90;99.90;;;;;;5042167;28;20084;-76
2024/01/16 11:14:03;;;;;;;7.65;2.70;;;1.90;99.90;;;;;;5037578;28;20379;-77
2024/01/16 11:16:32;;;;;;;4.10;2.00;;;1.80;99.90;;;;;;5033449;28;20129;-80
2024/01/16 11:18:58;;;;;;;5.88;2.28;;;1.90;99.90;;;;;;5046059;28;20037;-76
2024/01/16 11:21:25;;;;;;;8.45;3.03;;;1.80;99.90;;;;;;5040928;28;20103;-77
2024/01/16 11:23:51;;;;;;;5.25;2.40;;;1.90;99.90;;;;;;5040334;28;20048;-75
2024/01/16 11:26:33;;;;;;;7.22;2.92;;;1.90;99.90;;;;;;5065796;28;20045;-77
2024/01/16 11:29:00;;;;;;;7.40;3.00;;;1.90;99.90;;;;;;5068724;28;20099;-75
2024/01/16 11:31:30;;;;;;;6.10;2.60;;;2.00;99.90;;;;;;5037790;28;20041;-75
2024/01/16 11:33:59;;;;;;;6.95;2.40;;;2.00;99.90;;;;;;5077662;28;20060;-75
2024/01/16 11:36:46;;;;;;;5.85;2.78;;;2.20;99.90;;;;;;5036176;28;20547;-74
2024/01/16 11:39:18;;;;;;;8.45;2.40;;;1.90;99.90;;;;;;5051959;28;20037;-73
2024/01/16 11:41:54;;;;;;;4.50;2.13;;;1.90;99.90;;;;;;5087594;28;20048;-73
2024/01/16 11:44:54;;;;;;;4.75;2.03;;;1.90;99.90;;;;;;5037028;28;20064;-73
2024/01/16 11:47:21;;;;;;;6.90;2.13;;;1.90;99.90;;;;;;5025854;28;20055;-73
2024/01/16 11:49:48;;;;;;;8.77;2.22;;;2.00;99.90;;;;;;5061700;28;20465;-74
2024/01/16 11:52:14;;;;;;;4.90;2.20;;;2.10;99.90;;;;;;5068930;28;20360;-74
2024/01/16 11:54:42;;;;;;;7.47;2.42;;;1.90;99.90;;;;;;5048628;28;20429;-72
2024/01/16 11:57:31;;;;;;;5.35;2.00;;;1.90;99.90;;;;;;5041286;28;20036;-73
2024/01/16 12:00:12;;;;;;;4.38;2.20;;;1.90;99.90;;;;;;5048165;28;20041;-73
2024/01/16 12:02:55;;;;;;;5.80;2.38;;;1.90;99.90;;;;;;5043156;28;20073;-78
2024/01/16 12:05:21;;;;;;;6.10;2.30;;;1.90;99.90;;;;;;5047616;28;20041;-74
2024/01/16 12:07:52;;;;;;;5.97;2.30;;;1.90;99.90;;;;;;5074562;28;20095;-73
2024/01/16 12:10:19;;;;;;;7.85;2.40;;;1.90;99.90;;;;;;5043673;28;20048;-76
2024/01/16 12:12:46;;;;;;;7.22;2.72;;;1.90;99.90;;;;;;5046365;28;20033;-73
2024/01/16 12:15:20;;;;;;;5.82;2.40;;;2.00;99.90;;;;;;5047443;28;20467;-73
2024/01/16 12:18:00;;;;;;;6.32;2.80;;;2.00;99.90;;;;;;5064859;28;20064;-73
2024/01/16 12:20:29;;;;;;;3.65;2.03;;;2.00;99.90;;;;;;5035698;28;20107;-75
2024/01/16 12:23:00;;;;;;;5.78;2.10;;;1.90;99.90;;;;;;5067150;28;20049;-73
2024/01/16 12:25:30;;;;;;;7.07;2.60;;;2.00;99.90;;;;;;5033755;28;20037;-72
2024/01/16 12:27:57;;;;;;;7.57;2.42;;;1.90;99.90;;;;;;5068940;28;20045;-72
2024/01/16 12:30:28;;;;;;;6.97;2.40;;;1.90;99.90;;;;;;5076229;28;20102;-72
2024/01/16 12:33:04;;;;;;;6.22;2.50;;;1.90;99.90;;;;;;5039360;28;20057;-72
2024/01/16 12:35:30;;;;;;;4.82;2.03;;;1.90;99.90;;;;;;5072717;28;20374;-72
2024/01/16 12:38:00;;;;;;;6.55;2.30;;;1.90;99.90;;;;;;5084624;28;20182;-72
2024/01/16 12:40:26;;;;;;;5.97;2.03;;;1.90;99.90;;;;;;5051383;28;20064;-72
2024/01/16 12:42:53;;;;;;;5.97;2.60;;;1.90;99.90;;;;;;5062663;28;20041;-73
2024/01/16 12:45:19;;;;;;;5.90;2.42;;;2.00;99.90;;;;;;5051300;28;20037;-75
2024/01/16 12:47:53;;;;;;;7.10;2.20;;;1.90;99.90;;;;;;5031112;28;20045;-82
2024/01/16 12:50:23;;;;;;;5.75;2.10;;;1.90;99.90;;;;;;5065206;28;20389;-72
2024/01/16 12:53:09;;;;;;;6.15;2.33;;;1.90;99.90;;;;;;5062088;28;20041;-73